Main page
METAR-TAF:

METAR-TAF

Airports :

Munich, Germany

Munich Airport

latitude: 48-21N, longitude: 011-47E, elevation: 453 m

Current weather observation

The report was made 33 minutes ago, at 21:20 UTC
Wind 11 kt from the West/Southwest
Temperature 2°C
Humidity 93%
Pressure 1017 hPa
Visibility: 7000 m

METAR: EDDM 282120Z 25011KT 7000 NSC 02/01 Q1017 NOSIG

Time: 23:53 (21:53 UTC)

Forecast

The report was made 4 hours and 53 minutes ago, at 17:00 UTC
Forecast valid from 28 at 18 UTC to 29 at 24 UTC
Wind 7 kt from the West/Southwest
Visibility 10 km or more
Few clouds at a height of 1000 ft
Broken clouds at a height of 3000 ft
Temporary
from 28 at 18 UTC to 28 at 21 UTC
Visibility: 4000 m
Broken clouds at a height of 1200 ft, Towering cumulus.
rain showers, drizzle
Becoming
from 29 at 14 UTC to 29 at 16 UTC
Wind 2 kt from variable directions

TAF: EDDM 281700Z 2818/2924 24007KT 9999 FEW010 BKN030 TEMPO 2818/2821 4000 SHRADZ BKN012TCU BECMG 2914/2916 VRB02KT

Weather observations and forecasts of more than 4000 airports (METAR and TAF reports).

The available stations are represented by yellow and red dots on the map.

Hover mouse over dot to see the name of the station.

Then click to see weather observations and forecasts.

To change the map : click on the green buttons with a black cross to zoom in, on the green button with a dash to zoom out, or on the green arrows for adjacent maps.


METAR-TAF: